Estación Meteorológica Peña el Pijo (Robertgarden) [ 05/26/19 19:10:26 CEST ]

Fecha Hora Presion(HPa) Temp (°C) Humedad % Rocio (°C) Viento ( m/s) Direccion Lluvia 1Hora(mm) Lluvia 24H(mm) LLuvia Total(mm)
2018-Dec-15 01:01:49 1013.100 2.3 80 -0.8         160.58
2018-Dec-15 02:01:40 1012.900 2.9 78 -0.6         160.58
2018-Dec-15 03:10:09 1013.100 2.9 75 -1.1         160.58
2018-Dec-15 04:01:43 1012.900 2.9 74 -1.3         160.58
2018-Dec-15 05:01:42 1012.400 2.9 71 -1.8         160.58
2018-Dec-15 06:01:44 1013.000 4.4 64 -1.9         160.58
2018-Dec-15 07:01:53 1013.700 3.9 65 -2.1         160.58
2018-Dec-15 08:01:45 1014.100 4.1 64 -2.2         160.58
2018-Dec-15 09:02:00 1014.200 4.1 64 -2.2         160.58
2018-Dec-15 10:01:39 1014.500 8.4 60 1.1         160.58
2018-Dec-15 11:01:48 1015.100 12.5 56 3.9         160.58
2018-Dec-15 12:01:55 1015.000 14.9 55 5.9         160.58
2018-Dec-15 13:01:36 1014.300 16.1 53 6.5         160.58
2018-Dec-15 14:01:58 1013.600 17.3 51 7.0         160.58
2018-Dec-15 15:01:55 1013.700 16.9 49 6.1         160.58
2018-Dec-15 16:01:46 1013.800 15.4 53 5.8         160.58
2018-Dec-15 17:01:49 1013.800 13.3 60 5.7         160.58
2018-Dec-15 18:01:42 1014.000 11.4 65 5.0         160.58
2018-Dec-15 19:01:46 1014.400 8.9 70 3.7         160.58
2018-Dec-15 20:01:52 1014.700 7.3 74 3.0         160.58
2018-Dec-15 21:01:56 1014.800 5.8 77 2.1         160.58
2018-Dec-15 22:01:40 1014.300 6.1 80 2.9         160.58
2018-Dec-15 23:01:58 1014.100 6.9 82 4.0         160.58

Temperatura Máxima:17°    Temperatura Mínima:
Presión Máxima:1015.100 Hpa    Presión Mínima:1012.400 Hpa


Volver